sensor_id;sensor_type;location;lat;lon;timestamp;temperature;humidity
39453;DHT22;25154;-33.684;151.102;2023-07-31T00:02:59;17.10;95.60
39453;DHT22;25154;-33.684;151.102;2023-07-31T00:08:01;17.20;95.70
39453;DHT22;25154;-33.684;151.102;2023-07-31T00:13:04;17.50;94.30
39453;DHT22;25154;-33.684;151.102;2023-07-31T00:18:07;17.70;94.40
39453;DHT22;25154;-33.684;151.102;2023-07-31T00:23:09;17.80;94.10
39453;DHT22;25154;-33.684;151.102;2023-07-31T00:28:12;17.90;92.80
39453;DHT22;25154;-33.684;151.102;2023-07-31T00:33:15;18.00;92.80
39453;DHT22;25154;-33.684;151.102;2023-07-31T00:38:18;18.00;92.70
39453;DHT22;25154;-33.684;151.102;2023-07-31T00:43:20;18.20;92.10
39453;DHT22;25154;-33.684;151.102;2023-07-31T00:48:24;18.20;92.40
39453;DHT22;25154;-33.684;151.102;2023-07-31T00:53:28;18.00;90.00
39453;DHT22;25154;-33.684;151.102;2023-07-31T00:58:31;18.20;90.70
39453;DHT22;25154;-33.684;151.102;2023-07-31T01:03:34;18.30;90.10
39453;DHT22;25154;-33.684;151.102;2023-07-31T01:09:10;18.40;90.10
39453;DHT22;25154;-33.684;151.102;2023-07-31T01:14:14;18.60;89.80
39453;DHT22;25154;-33.684;151.102;2023-07-31T01:19:21;18.60;88.70
39453;DHT22;25154;-33.684;151.102;2023-07-31T01:24:54;18.90;89.30
39453;DHT22;25154;-33.684;151.102;2023-07-31T01:30:16;19.00;88.60
39453;DHT22;25154;-33.684;151.102;2023-07-31T01:35:19;19.50;86.40
39453;DHT22;25154;-33.684;151.102;2023-07-31T01:40:21;19.30;87.70
39453;DHT22;25154;-33.684;151.102;2023-07-31T01:45:24;19.70;85.30
39453;DHT22;25154;-33.684;151.102;2023-07-31T01:50:27;19.60;85.70
39453;DHT22;25154;-33.684;151.102;2023-07-31T01:55:30;19.70;86.10
39453;DHT22;25154;-33.684;151.102;2023-07-31T02:00:32;19.60;85.30
39453;DHT22;25154;-33.684;151.102;2023-07-31T02:05:35;19.60;85.70
39453;DHT22;25154;-33.684;151.102;2023-07-31T02:10:38;20.20;86.00
39453;DHT22;25154;-33.684;151.102;2023-07-31T02:15:41;20.30;84.40
39453;DHT22;25154;-33.684;151.102;2023-07-31T02:20:43;20.20;82.80
39453;DHT22;25154;-33.684;151.102;2023-07-31T02:25:48;20.40;84.30
39453;DHT22;25154;-33.684;151.102;2023-07-31T02:30:51;20.20;84.80
39453;DHT22;25154;-33.684;151.102;2023-07-31T02:35:54;20.40;82.80
39453;DHT22;25154;-33.684;151.102;2023-07-31T02:40:57;20.40;84.00
39453;DHT22;25154;-33.684;151.102;2023-07-31T02:46:00;20.70;82.20
39453;DHT22;25154;-33.684;151.102;2023-07-31T02:51:03;20.40;82.80
39453;DHT22;25154;-33.684;151.102;2023-07-31T02:56:05;20.60;82.50
39453;DHT22;25154;-33.684;151.102;2023-07-31T03:01:08;21.30;82.10
39453;DHT22;25154;-33.684;151.102;2023-07-31T03:06:11;21.10;78.90
39453;DHT22;25154;-33.684;151.102;2023-07-31T03:11:14;21.10;79.90
39453;DHT22;25154;-33.684;151.102;2023-07-31T03:16:16;20.90;79.60
39453;DHT22;25154;-33.684;151.102;2023-07-31T03:21:19;21.50;79.10
39453;DHT22;25154;-33.684;151.102;2023-07-31T03:26:22;21.30;78.10
39453;DHT22;25154;-33.684;151.102;2023-07-31T03:31:25;21.50;78.10
39453;DHT22;25154;-33.684;151.102;2023-07-31T03:36:27;21.90;78.40
39453;DHT22;25154;-33.684;151.102;2023-07-31T03:41:30;22.60;79.80
39453;DHT22;25154;-33.684;151.102;2023-07-31T03:46:33;22.40;77.70
39453;DHT22;25154;-33.684;151.102;2023-07-31T03:51:37;21.70;76.40
39453;DHT22;25154;-33.684;151.102;2023-07-31T03:56:41;21.90;77.30
39453;DHT22;25154;-33.684;151.102;2023-07-31T04:01:44;22.10;75.90
39453;DHT22;25154;-33.684;151.102;2023-07-31T04:06:46;22.30;77.60
39453;DHT22;25154;-33.684;151.102;2023-07-31T04:11:49;21.80;76.40
39453;DHT22;25154;-33.684;151.102;2023-07-31T04:16:52;22.10;75.90
39453;DHT22;25154;-33.684;151.102;2023-07-31T04:21:55;22.80;75.70
39453;DHT22;25154;-33.684;151.102;2023-07-31T04:26:58;22.60;74.90
39453;DHT22;25154;-33.684;151.102;2023-07-31T04:32:00;23.10;73.60
39453;DHT22;25154;-33.684;151.102;2023-07-31T04:37:03;22.60;75.90
39453;DHT22;25154;-33.684;151.102;2023-07-31T04:42:05;22.90;74.10
39453;DHT22;25154;-33.684;151.102;2023-07-31T04:47:07;23.30;75.60
39453;DHT22;25154;-33.684;151.102;2023-07-31T04:52:10;25.10;72.10
39453;DHT22;25154;-33.684;151.102;2023-07-31T04:57:12;28.50;69.20
39453;DHT22;25154;-33.684;151.102;2023-07-31T05:02:14;31.00;61.10
39453;DHT22;25154;-33.684;151.102;2023-07-31T05:07:17;30.90;58.50
39453;DHT22;25154;-33.684;151.102;2023-07-31T05:12:19;32.30;57.20
39453;DHT22;25154;-33.684;151.102;2023-07-31T05:17:22;32.80;56.10
39453;DHT22;25154;-33.684;151.102;2023-07-31T05:22:25;34.40;54.60
39453;DHT22;25154;-33.684;151.102;2023-07-31T05:27:28;33.30;53.10
39453;DHT22;25154;-33.684;151.102;2023-07-31T05:32:30;33.60;51.90
39453;DHT22;25154;-33.684;151.102;2023-07-31T05:37:32;32.80;52.30
39453;DHT22;25154;-33.684;151.102;2023-07-31T05:42:35;33.10;51.10
39453;DHT22;25154;-33.684;151.102;2023-07-31T05:47:39;33.40;50.90
39453;DHT22;25154;-33.684;151.102;2023-07-31T05:52:41;34.60;51.00
39453;DHT22;25154;-33.684;151.102;2023-07-31T05:57:44;34.20;50.80
39453;DHT22;25154;-33.684;151.102;2023-07-31T06:02:50;31.10;52.50
39453;DHT22;25154;-33.684;151.102;2023-07-31T06:07:52;26.60;57.60
39453;DHT22;25154;-33.684;151.102;2023-07-31T06:12:55;24.20;63.50
39453;DHT22;25154;-33.684;151.102;2023-07-31T06:17:59;23.10;67.30
39453;DHT22;25154;-33.684;151.102;2023-07-31T06:23:03;22.40;68.60
39453;DHT22;25154;-33.684;151.102;2023-07-31T06:28:05;22.20;68.70
39453;DHT22;25154;-33.684;151.102;2023-07-31T06:33:08;23.90;63.90
39453;DHT22;25154;-33.684;151.102;2023-07-31T06:38:10;23.00;67.90
39453;DHT22;25154;-33.684;151.102;2023-07-31T06:43:13;21.50;71.40
39453;DHT22;25154;-33.684;151.102;2023-07-31T06:48:15;20.30;78.90
39453;DHT22;25154;-33.684;151.102;2023-07-31T06:53:17;19.40;81.40
39453;DHT22;25154;-33.684;151.102;2023-07-31T06:58:20;18.60;87.30
39453;DHT22;25154;-33.684;151.102;2023-07-31T07:03:22;18.10;90.10
39453;DHT22;25154;-33.684;151.102;2023-07-31T07:08:25;17.40;93.60
39453;DHT22;25154;-33.684;151.102;2023-07-31T07:13:27;17.20;95.80
39453;DHT22;25154;-33.684;151.102;2023-07-31T07:18:31;16.80;98.30
39453;DHT22;25154;-33.684;151.102;2023-07-31T07:23:34;16.50;98.50
39453;DHT22;25154;-33.684;151.102;2023-07-31T07:28:37;16.10;99.90
39453;DHT22;25154;-33.684;151.102;2023-07-31T07:33:39;15.80;99.90
39453;DHT22;25154;-33.684;151.102;2023-07-31T07:38:45;15.60;99.90
39453;DHT22;25154;-33.684;151.102;2023-07-31T07:43:48;15.20;99.90
39453;DHT22;25154;-33.684;151.102;2023-07-31T07:48:51;15.20;99.90
39453;DHT22;25154;-33.684;151.102;2023-07-31T07:53:53;15.00;99.90
39453;DHT22;25154;-33.684;151.102;2023-07-31T07:58:56;14.90;99.90
39453;DHT22;25154;-33.684;151.102;2023-07-31T08:03:59;14.80;99.90
39453;DHT22;25154;-33.684;151.102;2023-07-31T08:09:03;14.60;99.90
39453;DHT22;25154;-33.684;151.102;2023-07-31T08:14:07;14.50;99.90
39453;DHT22;25154;-33.684;151.102;2023-07-31T08:19:10;14.30;99.90
39453;DHT22;25154;-33.684;151.102;2023-07-31T08:24:12;15.20;99.90
39453;DHT22;25154;-33.684;151.102;2023-07-31T08:29:17;14.20;99.90
39453;DHT22;25154;-33.684;151.102;2023-07-31T08:34:19;13.90;99.90
39453;DHT22;25154;-33.684;151.102;2023-07-31T08:39:22;14.00;99.90
39453;DHT22;25154;-33.684;151.102;2023-07-31T08:44:24;13.90;99.90
39453;DHT22;25154;-33.684;151.102;2023-07-31T08:49:26;13.70;99.90
39453;DHT22;25154;-33.684;151.102;2023-07-31T08:54:30;13.60;99.90
39453;DHT22;25154;-33.684;151.102;2023-07-31T08:59:35;13.60;99.90
39453;DHT22;25154;-33.684;151.102;2023-07-31T09:04:38;13.50;99.90
39453;DHT22;25154;-33.684;151.102;2023-07-31T09:09:42;13.40;99.90
39453;DHT22;25154;-33.684;151.102;2023-07-31T09:14:46;13.30;99.90
39453;DHT22;25154;-33.684;151.102;2023-07-31T09:19:49;13.20;99.90
39453;DHT22;25154;-33.684;151.102;2023-07-31T09:24:51;13.20;99.90
39453;DHT22;25154;-33.684;151.102;2023-07-31T09:30:00;12.90;99.90
39453;DHT22;25154;-33.684;151.102;2023-07-31T09:35:22;12.50;99.90
39453;DHT22;25154;-33.684;151.102;2023-07-31T09:40:35;12.50;99.90
39453;DHT22;25154;-33.684;151.102;2023-07-31T09:45:40;12.60;99.90
39453;DHT22;25154;-33.684;151.102;2023-07-31T09:50:47;12.50;99.90
39453;DHT22;25154;-33.684;151.102;2023-07-31T09:55:50;12.40;99.90
39453;DHT22;25154;-33.684;151.102;2023-07-31T10:00:53;12.00;99.90
39453;DHT22;25154;-33.684;151.102;2023-07-31T10:05:57;12.00;99.90
39453;DHT22;25154;-33.684;151.102;2023-07-31T10:11:01;11.90;99.90
39453;DHT22;25154;-33.684;151.102;2023-07-31T10:16:04;11.70;99.90
39453;DHT22;25154;-33.684;151.102;2023-07-31T10:21:07;11.50;99.90
39453;DHT22;25154;-33.684;151.102;2023-07-31T10:26:11;11.60;99.90
39453;DHT22;25154;-33.684;151.102;2023-07-31T10:31:15;11.50;99.90
39453;DHT22;25154;-33.684;151.102;2023-07-31T10:36:19;11.20;99.90
39453;DHT22;25154;-33.684;151.102;2023-07-31T10:41:32;11.90;99.90
39453;DHT22;25154;-33.684;151.102;2023-07-31T10:46:34;11.20;99.90
39453;DHT22;25154;-33.684;151.102;2023-07-31T10:51:36;11.20;99.90
39453;DHT22;25154;-33.684;151.102;2023-07-31T10:56:39;11.40;99.90
39453;DHT22;25154;-33.684;151.102;2023-07-31T11:01:55;11.30;99.90
39453;DHT22;25154;-33.684;151.102;2023-07-31T11:07:05;11.40;99.90
39453;DHT22;25154;-33.684;151.102;2023-07-31T11:12:12;11.70;99.90
39453;DHT22;25154;-33.684;151.102;2023-07-31T11:17:15;11.50;99.90
39453;DHT22;25154;-33.684;151.102;2023-07-31T11:22:18;11.30;99.90
39453;DHT22;25154;-33.684;151.102;2023-07-31T11:27:21;11.10;99.90
39453;DHT22;25154;-33.684;151.102;2023-07-31T11:32:24;11.30;99.90
39453;DHT22;25154;-33.684;151.102;2023-07-31T11:37:40;11.50;99.90
39453;DHT22;25154;-33.684;151.102;2023-07-31T11:42:43;11.40;99.90
39453;DHT22;25154;-33.684;151.102;2023-07-31T11:47:46;10.90;99.90
39453;DHT22;25154;-33.684;151.102;2023-07-31T11:52:50;11.10;99.90
39453;DHT22;25154;-33.684;151.102;2023-07-31T11:57:55;11.30;99.90
39453;DHT22;25154;-33.684;151.102;2023-07-31T12:02:59;11.20;99.90
39453;DHT22;25154;-33.684;151.102;2023-07-31T12:08:10;10.70;99.90
39453;DHT22;25154;-33.684;151.102;2023-07-31T12:13:24;10.90;99.90
39453;DHT22;25154;-33.684;151.102;2023-07-31T12:18:29;11.00;99.90
39453;DHT22;25154;-33.684;151.102;2023-07-31T12:23:33;10.90;99.90
39453;DHT22;25154;-33.684;151.102;2023-07-31T12:28:37;10.80;99.90
39453;DHT22;25154;-33.684;151.102;2023-07-31T12:33:42;10.70;99.90
39453;DHT22;25154;-33.684;151.102;2023-07-31T12:38:45;10.60;99.90
39453;DHT22;25154;-33.684;151.102;2023-07-31T12:43:48;10.40;99.90
39453;DHT22;25154;-33.684;151.102;2023-07-31T12:48:50;10.40;99.90
39453;DHT22;25154;-33.684;151.102;2023-07-31T12:53:53;10.20;99.90
39453;DHT22;25154;-33.684;151.102;2023-07-31T12:58:56;10.10;99.90
39453;DHT22;25154;-33.684;151.102;2023-07-31T13:03:58;9.90;99.90
39453;DHT22;25154;-33.684;151.102;2023-07-31T13:09:01;9.90;99.90
39453;DHT22;25154;-33.684;151.102;2023-07-31T13:14:04;10.10;99.90
39453;DHT22;25154;-33.684;151.102;2023-07-31T13:19:07;10.00;99.90
39453;DHT22;25154;-33.684;151.102;2023-07-31T13:24:10;10.00;99.90
39453;DHT22;25154;-33.684;151.102;2023-07-31T13:29:12;9.90;99.90
39453;DHT22;25154;-33.684;151.102;2023-07-31T13:34:15;9.60;99.90
39453;DHT22;25154;-33.684;151.102;2023-07-31T13:39:18;9.70;99.90
39453;DHT22;25154;-33.684;151.102;2023-07-31T13:44:21;9.80;99.90
39453;DHT22;25154;-33.684;151.102;2023-07-31T13:49:23;9.70;99.90
39453;DHT22;25154;-33.684;151.102;2023-07-31T13:54:26;9.60;99.90
39453;DHT22;25154;-33.684;151.102;2023-07-31T13:59:29;9.50;99.90
39453;DHT22;25154;-33.684;151.102;2023-07-31T14:04:31;9.60;99.90
39453;DHT22;25154;-33.684;151.102;2023-07-31T14:09:34;9.40;99.90
39453;DHT22;25154;-33.684;151.102;2023-07-31T14:14:37;9.30;99.90
39453;DHT22;25154;-33.684;151.102;2023-07-31T14:19:39;9.30;99.90
39453;DHT22;25154;-33.684;151.102;2023-07-31T14:24:42;9.30;99.90
39453;DHT22;25154;-33.684;151.102;2023-07-31T14:29:45;9.80;99.90
39453;DHT22;25154;-33.684;151.102;2023-07-31T14:34:47;9.40;99.90
39453;DHT22;25154;-33.684;151.102;2023-07-31T14:39:54;8.90;99.90
39453;DHT22;25154;-33.684;151.102;2023-07-31T14:44:58;9.00;99.90
39453;DHT22;25154;-33.684;151.102;2023-07-31T14:50:00;8.70;99.90
39453;DHT22;25154;-33.684;151.102;2023-07-31T14:55:04;8.70;99.90
39453;DHT22;25154;-33.684;151.102;2023-07-31T15:00:07;8.30;99.90
39453;DHT22;25154;-33.684;151.102;2023-07-31T15:05:11;8.60;99.90
39453;DHT22;25154;-33.684;151.102;2023-07-31T15:10:14;8.80;99.90
39453;DHT22;25154;-33.684;151.102;2023-07-31T15:15:16;8.60;99.90
39453;DHT22;25154;-33.684;151.102;2023-07-31T15:20:19;8.50;99.90
39453;DHT22;25154;-33.684;151.102;2023-07-31T15:25:22;8.40;99.90
39453;DHT22;25154;-33.684;151.102;2023-07-31T15:30:24;8.30;99.90
39453;DHT22;25154;-33.684;151.102;2023-07-31T15:35:27;8.30;99.90
39453;DHT22;25154;-33.684;151.102;2023-07-31T15:40:29;8.20;99.90
39453;DHT22;25154;-33.684;151.102;2023-07-31T15:45:31;8.00;99.90
39453;DHT22;25154;-33.684;151.102;2023-07-31T15:50:34;8.00;99.90
39453;DHT22;25154;-33.684;151.102;2023-07-31T15:55:36;9.60;99.90
39453;DHT22;25154;-33.684;151.102;2023-07-31T16:00:38;8.00;99.90
39453;DHT22;25154;-33.684;151.102;2023-07-31T16:05:41;7.90;99.90
39453;DHT22;25154;-33.684;151.102;2023-07-31T16:10:45;7.80;99.90
39453;DHT22;25154;-33.684;151.102;2023-07-31T16:15:47;7.50;99.90
39453;DHT22;25154;-33.684;151.102;2023-07-31T16:20:51;7.60;99.90
39453;DHT22;25154;-33.684;151.102;2023-07-31T16:25:53;7.60;99.90
39453;DHT22;25154;-33.684;151.102;2023-07-31T16:30:56;7.60;99.90
39453;DHT22;25154;-33.684;151.102;2023-07-31T16:35:58;7.30;99.90
39453;DHT22;25154;-33.684;151.102;2023-07-31T16:41:01;7.40;99.90
39453;DHT22;25154;-33.684;151.102;2023-07-31T16:46:03;7.40;99.90
39453;DHT22;25154;-33.684;151.102;2023-07-31T16:51:05;7.30;99.90
39453;DHT22;25154;-33.684;151.102;2023-07-31T16:56:08;6.90;99.90
39453;DHT22;25154;-33.684;151.102;2023-07-31T17:01:10;6.90;99.90
39453;DHT22;25154;-33.684;151.102;2023-07-31T17:06:12;6.80;99.90
39453;DHT22;25154;-33.684;151.102;2023-07-31T17:11:14;6.80;99.90
39453;DHT22;25154;-33.684;151.102;2023-07-31T17:16:21;7.00;99.90
39453;DHT22;25154;-33.684;151.102;2023-07-31T17:21:23;6.80;99.90
39453;DHT22;25154;-33.684;151.102;2023-07-31T17:26:25;6.70;99.90
39453;DHT22;25154;-33.684;151.102;2023-07-31T17:31:28;7.10;99.90
39453;DHT22;25154;-33.684;151.102;2023-07-31T17:36:31;6.70;99.90
39453;DHT22;25154;-33.684;151.102;2023-07-31T17:41:34;6.90;99.90
39453;DHT22;25154;-33.684;151.102;2023-07-31T17:46:37;7.10;99.90
39453;DHT22;25154;-33.684;151.102;2023-07-31T17:51:39;7.00;99.90
39453;DHT22;25154;-33.684;151.102;2023-07-31T17:56:41;6.60;99.90
39453;DHT22;25154;-33.684;151.102;2023-07-31T18:01:44;6.40;99.90
39453;DHT22;25154;-33.684;151.102;2023-07-31T18:06:46;6.70;99.90
39453;DHT22;25154;-33.684;151.102;2023-07-31T18:11:49;6.80;99.90
39453;DHT22;25154;-33.684;151.102;2023-07-31T18:16:51;8.80;99.90
39453;DHT22;25154;-33.684;151.102;2023-07-31T18:21:53;6.70;99.90
39453;DHT22;25154;-33.684;151.102;2023-07-31T18:26:56;6.60;99.90
39453;DHT22;25154;-33.684;151.102;2023-07-31T18:31:59;6.60;99.90
39453;DHT22;25154;-33.684;151.102;2023-07-31T18:37:01;6.10;99.90
39453;DHT22;25154;-33.684;151.102;2023-07-31T18:42:05;6.10;99.90
39453;DHT22;25154;-33.684;151.102;2023-07-31T18:47:08;6.50;99.90
39453;DHT22;25154;-33.684;151.102;2023-07-31T18:52:10;6.60;99.90
39453;DHT22;25154;-33.684;151.102;2023-07-31T18:57:12;6.50;99.90
39453;DHT22;25154;-33.684;151.102;2023-07-31T19:02:15;6.20;99.90
39453;DHT22;25154;-33.684;151.102;2023-07-31T19:07:17;5.70;99.90
39453;DHT22;25154;-33.684;151.102;2023-07-31T19:12:20;5.90;99.90
39453;DHT22;25154;-33.684;151.102;2023-07-31T19:17:22;6.20;99.90
39453;DHT22;25154;-33.684;151.102;2023-07-31T19:22:25;6.00;99.90
39453;DHT22;25154;-33.684;151.102;2023-07-31T19:27:27;5.50;99.90
39453;DHT22;25154;-33.684;151.102;2023-07-31T19:32:30;5.70;99.90
39453;DHT22;25154;-33.684;151.102;2023-07-31T19:37:32;5.70;99.90
39453;DHT22;25154;-33.684;151.102;2023-07-31T19:42:34;6.10;99.90
39453;DHT22;25154;-33.684;151.102;2023-07-31T19:47:39;6.20;99.90
39453;DHT22;25154;-33.684;151.102;2023-07-31T19:52:42;5.60;99.90
39453;DHT22;25154;-33.684;151.102;2023-07-31T19:57:45;5.40;99.90
39453;DHT22;25154;-33.684;151.102;2023-07-31T20:02:47;6.00;99.90
39453;DHT22;25154;-33.684;151.102;2023-07-31T20:07:49;5.70;99.90
39453;DHT22;25154;-33.684;151.102;2023-07-31T20:12:52;5.60;99.90
39453;DHT22;25154;-33.684;151.102;2023-07-31T20:17:54;5.80;99.90
39453;DHT22;25154;-33.684;151.102;2023-07-31T20:22:57;6.00;99.90
39453;DHT22;25154;-33.684;151.102;2023-07-31T20:28:00;5.30;99.90
39453;DHT22;25154;-33.684;151.102;2023-07-31T20:33:02;5.70;99.90
39453;DHT22;25154;-33.684;151.102;2023-07-31T20:38:04;5.80;99.90
39453;DHT22;25154;-33.684;151.102;2023-07-31T20:43:07;5.70;99.90
39453;DHT22;25154;-33.684;151.102;2023-07-31T20:48:09;5.30;99.90
39453;DHT22;25154;-33.684;151.102;2023-07-31T20:53:14;7.00;99.90
39453;DHT22;25154;-33.684;151.102;2023-07-31T20:58:18;5.80;99.90
39453;DHT22;25154;-33.684;151.102;2023-07-31T21:03:21;5.70;99.90
39453;DHT22;25154;-33.684;151.102;2023-07-31T21:08:24;6.00;99.90
39453;DHT22;25154;-33.684;151.102;2023-07-31T21:13:26;6.10;99.90
39453;DHT22;25154;-33.684;151.102;2023-07-31T21:18:28;5.90;99.90
39453;DHT22;25154;-33.684;151.102;2023-07-31T21:23:31;7.10;99.90
39453;DHT22;25154;-33.684;151.102;2023-07-31T21:28:33;7.10;99.90
39453;DHT22;25154;-33.684;151.102;2023-07-31T21:33:36;6.70;99.90
39453;DHT22;25154;-33.684;151.102;2023-07-31T21:38:39;6.60;99.90
39453;DHT22;25154;-33.684;151.102;2023-07-31T21:43:42;6.80;99.90
39453;DHT22;25154;-33.684;151.102;2023-07-31T21:48:45;6.90;99.90
39453;DHT22;25154;-33.684;151.102;2023-07-31T21:53:47;7.00;99.90
39453;DHT22;25154;-33.684;151.102;2023-07-31T21:58:50;7.50;99.90
39453;DHT22;25154;-33.684;151.102;2023-07-31T22:03:54;7.70;99.90
39453;DHT22;25154;-33.684;151.102;2023-07-31T22:08:56;7.70;99.90
39453;DHT22;25154;-33.684;151.102;2023-07-31T22:13:58;7.80;99.90
39453;DHT22;25154;-33.684;151.102;2023-07-31T22:19:02;8.00;99.90
39453;DHT22;25154;-33.684;151.102;2023-07-31T22:24:04;8.40;99.90
39453;DHT22;25154;-33.684;151.102;2023-07-31T22:29:06;8.70;99.90
39453;DHT22;25154;-33.684;151.102;2023-07-31T22:34:09;9.10;99.90
39453;DHT22;25154;-33.684;151.102;2023-07-31T22:39:11;9.20;99.90
39453;DHT22;25154;-33.684;151.102;2023-07-31T22:44:13;9.40;99.90
39453;DHT22;25154;-33.684;151.102;2023-07-31T22:49:16;10.80;99.90
39453;DHT22;25154;-33.684;151.102;2023-07-31T22:54:18;11.20;99.90
39453;DHT22;25154;-33.684;151.102;2023-07-31T22:59:21;11.50;99.90
39453;DHT22;25154;-33.684;151.102;2023-07-31T23:04:23;12.10;99.90
39453;DHT22;25154;-33.684;151.102;2023-07-31T23:09:26;12.10;99.90
39453;DHT22;25154;-33.684;151.102;2023-07-31T23:14:28;12.60;99.90
39453;DHT22;25154;-33.684;151.102;2023-07-31T23:19:30;12.90;99.90
39453;DHT22;25154;-33.684;151.102;2023-07-31T23:24:33;13.20;99.90
39453;DHT22;25154;-33.684;151.102;2023-07-31T23:29:38;13.40;99.90
39453;DHT22;25154;-33.684;151.102;2023-07-31T23:34:41;13.50;99.90
39453;DHT22;25154;-33.684;151.102;2023-07-31T23:39:43;13.70;99.90
39453;DHT22;25154;-33.684;151.102;2023-07-31T23:44:46;14.10;99.90
39453;DHT22;25154;-33.684;151.102;2023-07-31T23:49:48;14.00;99.90
39453;DHT22;25154;-33.684;151.102;2023-07-31T23:54:51;14.40;99.90
39453;DHT22;25154;-33.684;151.102;2023-07-31T23:59:55;14.60;99.90
